ADDS METAR Data

Data at: 0715 UTC 16 Jan 2018

METAR for:KPHX (Phoenix/Sky Harbor, AZ, US)
Text:KPHX 160651Z 10005KT 10SM BKN250 14/03 A3007 RMK AO2 SLP174 T01390033 402390094
Temperature: 13.9°C ( 57°F)
Dewpoint: 3.3°C ( 38°F) [RH = 49%]
Pressure (altimeter):30.07 inches Hg (1018.4 mb) [Sea level pressure: 1017.4 mb]
Winds:from the E (100 degrees) at 6 MPH (5 knots; 2.6 m/s)
Visibility:10 or more sm (16+ km)
Ceiling:25000 feet AGL
Clouds: broken clouds at 25000 feet AGL